Time;durP1;ratioP1;P1;durP2;ratioP2;P2;SDS_P1;SDS_P2;PMS_P1;PMS_P2;Temp;Humidity;BMP_temperature;BMP_pressure;BME280_temperature;BME280_humidity;BME280_pressure;Samples;Min_cycle;Max_cycle;Signal;HPM_P1;HPM_P2
2022/09/26 00:00:07;;;;;;;5.07;2.55;;;;;;;;;;5040872;28;20065;-83
2022/09/26 00:02:41;;;;;;;5.80;3.28;;;;;;;;;;5043514;28;20069;-84
2022/09/26 00:05:10;;;;;;;5.25;2.55;;;;;;;;;;5043203;28;20059;-83
2022/09/26 00:07:37;;;;;;;4.38;2.47;;;;;;;;;;5043656;28;21001;-83
2022/09/26 00:10:06;;;;;;;6.57;2.63;;;;;;;;;;5042387;28;20032;-83
2022/09/26 00:12:33;;;;;;;8.25;2.95;;;;;;;;;;5044136;28;20044;-83
2022/09/26 00:15:02;;;;;;;5.68;2.30;;;;;;;;;;5041514;28;20594;-84
2022/09/26 00:17:29;;;;;;;4.72;2.40;;;;;;;;;;5042448;28;20049;-83
2022/09/26 00:19:57;;;;;;;8.07;2.65;;;;;;;;;;5040817;28;20033;-84
2022/09/26 00:22:26;;;;;;;3.83;2.30;;;;;;;;;;5043083;28;20056;-83
2022/09/26 00:24:57;;;;;;;4.55;2.13;;;;;;;;;;5043253;28;20094;-83
2022/09/26 00:27:25;;;;;;;7.57;2.40;;;;;;;;;;5042389;28;20123;-83
2022/09/26 00:29:58;;;;;;;4.68;2.50;;;;;;;;;;5024550;28;20748;-83
2022/09/26 00:32:26;;;;;;;6.03;2.50;;;;;;;;;;5042230;28;20099;-84
2022/09/26 00:34:53;;;;;;;4.55;2.22;;;;;;;;;;5041556;28;20052;-83
2022/09/26 00:37:26;;;;;;;8.27;2.90;;;;;;;;;;5019195;28;20501;-84
2022/09/26 00:39:54;;;;;;;4.10;2.35;;;;;;;;;;5040212;28;20044;-83
2022/09/26 00:42:26;;;;;;;7.00;2.35;;;;;;;;;;5044087;28;20037;-83
2022/09/26 00:44:55;;;;;;;7.53;2.63;;;;;;;;;;5041604;28;20041;-83
2022/09/26 00:48:04;;;;;;;4.57;2.58;;;;;;;;;;5043537;28;20045;-83
2022/09/26 00:50:56;;;;;;;4.35;2.20;;;;;;;;;;5042297;28;20037;-83
2022/09/26 00:53:30;;;;;;;8.05;2.30;;;;;;;;;;5030948;28;20080;-83
2022/09/26 00:56:05;;;;;;;4.55;2.45;;;;;;;;;;5042820;28;20049;-83
2022/09/26 00:59:07;;;;;;;9.30;2.50;;;;;;;;;;5042509;28;20033;-85
2022/09/26 01:02:00;;;;;;;6.97;2.30;;;;;;;;;;5042209;28;20037;-85
2022/09/26 01:04:31;;;;;;;6.32;2.60;;;;;;;;;;5041863;28;20059;-84
2022/09/26 01:07:03;;;;;;;5.35;2.33;;;;;;;;;;5025579;28;20071;-85
2022/09/26 01:09:32;;;;;;;6.00;2.95;;;;;;;;;;5040762;28;20033;-85
2022/09/26 01:12:02;;;;;;;6.20;2.78;;;;;;;;;;5024999;28;20155;-85
2022/09/26 01:14:31;;;;;;;5.50;2.50;;;;;;;;;;5023724;28;20172;-85
2022/09/26 01:17:00;;;;;;;8.68;2.58;;;;;;;;;;5040947;28;20041;-84
2022/09/26 01:19:56;;;;;;;5.32;2.67;;;;;;;;;;5041603;28;20045;-84
2022/09/26 01:23:01;;;;;;;4.20;2.13;;;;;;;;;;5016531;28;20519;-85
2022/09/26 01:25:43;;;;;;;9.55;2.60;;;;;;;;;;5041702;28;20044;-85
2022/09/26 01:28:44;;;;;;;5.55;2.58;;;;;;;;;;5024255;28;20952;-85
2022/09/26 01:31:36;;;;;;;6.57;2.50;;;;;;;;;;5041521;28;20068;-85
2022/09/26 01:34:30;;;;;;;8.63;3.13;;;;;;;;;;5027665;28;20123;-84
2022/09/26 01:37:50;;;;;;;5.70;2.60;;;;;;;;;;5021768;28;20171;-84
2022/09/26 01:40:17;;;;;;;6.93;2.47;;;;;;;;;;5025556;28;20051;-85
2022/09/26 01:42:55;;;;;;;7.40;2.55;;;;;;;;;;5045933;28;20930;-85
2022/09/26 01:45:31;;;;;;;11.60;2.40;;;;;;;;;;5044513;28;20595;-85
2022/09/26 01:48:08;;;;;;;7.10;2.33;;;;;;;;;;5047333;28;20045;-85
2022/09/26 01:50:45;;;;;;;8.93;2.58;;;;;;;;;;5029023;28;20047;-85
2022/09/26 01:53:46;;;;;;;5.15;2.30;;;;;;;;;;5043653;28;20531;-85
2022/09/26 01:56:42;;;;;;;4.85;2.17;;;;;;;;;;4973933;28;20051;-86
2022/09/26 01:59:40;;;;;;;7.47;2.70;;;;;;;;;;4956608;28;20136;-85
2022/09/26 02:02:39;;;;;;;5.47;2.42;;;;;;;;;;4952437;28;20050;-84
2022/09/26 02:05:38;;;;;;;4.03;2.05;;;;;;;;;;4937983;28;20047;-85
2022/09/26 02:08:25;;;;;;;8.00;2.45;;;;;;;;;;4954202;28;20579;-85
2022/09/26 02:11:23;;;;;;;5.53;2.33;;;;;;;;;;4955936;28;20046;-85
2022/09/26 02:14:02;;;;;;;4.13;2.17;;;;;;;;;;4935404;28;20046;-85
2022/09/26 02:17:16;;;;;;;4.80;2.63;;;;;;;;;;4952375;28;20058;-85
2022/09/26 02:20:04;;;;;;;7.00;2.72;;;;;;;;;;4936945;28;20051;-85
2022/09/26 02:22:38;;;;;;;5.60;2.38;;;;;;;;;;4954443;28;20523;-85
2022/09/26 02:25:07;;;;;;;11.23;2.95;;;;;;;;;;4937806;28;20073;-85
2022/09/26 02:27:36;;;;;;;5.55;2.30;;;;;;;;;;4952543;28;20179;-85
2022/09/26 02:30:05;;;;;;;4.18;2.28;;;;;;;;;;4953325;28;20081;-85
2022/09/26 02:32:34;;;;;;;6.03;2.28;;;;;;;;;;4948809;28;20108;-86
2022/09/26 02:37:51;;;;;;;8.57;2.50;;;;;;;;;;4978295;28;20073;-84
2022/09/26 02:40:35;;;;;;;5.63;2.28;;;;;;;;;;5043975;28;20527;-86
2022/09/26 02:43:24;;;;;;;6.63;2.50;;;;;;;;;;5042912;28;20198;-85
2022/09/26 02:46:25;;;;;;;7.05;2.40;;;;;;;;;;5043244;28;21113;-84
2022/09/26 02:49:20;;;;;;;8.38;2.75;;;;;;;;;;5020268;28;20137;-85
2022/09/26 02:52:03;;;;;;;5.47;2.45;;;;;;;;;;4964705;28;20178;-85
2022/09/26 02:54:48;;;;;;;4.53;2.38;;;;;;;;;;4966413;28;20107;-85
2022/09/26 02:57:47;;;;;;;6.45;2.50;;;;;;;;;;4961704;28;20201;-85
2022/09/26 03:00:35;;;;;;;4.70;2.58;;;;;;;;;;4980985;28;20058;-85
2022/09/26 03:03:11;;;;;;;8.15;2.78;;;;;;;;;;4958796;28;20640;-84
2022/09/26 03:05:44;;;;;;;9.00;2.80;;;;;;;;;;4981489;28;20226;-85
2022/09/26 03:08:18;;;;;;;8.10;2.63;;;;;;;;;;4982426;28;20137;-85
2022/09/26 03:10:47;;;;;;;4.70;2.67;;;;;;;;;;4982930;28;20046;-84
2022/09/26 03:13:18;;;;;;;5.68;2.42;;;;;;;;;;4966929;28;20046;-85
2022/09/26 03:15:53;;;;;;;11.98;2.47;;;;;;;;;;4998134;28;20060;-83
2022/09/26 03:18:53;;;;;;;6.05;2.63;;;;;;;;;;5041721;28;20041;-85
2022/09/26 03:21:22;;;;;;;4.75;2.58;;;;;;;;;;5042891;28;20076;-85
2022/09/26 03:24:00;;;;;;;5.85;2.35;;;;;;;;;;5025008;28;20039;-85
2022/09/26 03:26:29;;;;;;;12.75;2.67;;;;;;;;;;5042397;28;20104;-84
2022/09/26 03:29:02;;;;;;;6.50;2.72;;;;;;;;;;5042638;28;20049;-85
2022/09/26 03:31:32;;;;;;;7.28;2.55;;;;;;;;;;5025675;28;20127;-85
2022/09/26 03:34:07;;;;;;;7.15;2.63;;;;;;;;;;5042763;28;20519;-85
2022/09/26 03:36:38;;;;;;;6.20;2.70;;;;;;;;;;5041870;28;20044;-85
2022/09/26 03:39:07;;;;;;;7.75;2.65;;;;;;;;;;5025888;28;20131;-84
2022/09/26 03:41:45;;;;;;;8.82;2.67;;;;;;;;;;5040580;28;20099;-84
2022/09/26 03:44:22;;;;;;;7.00;2.55;;;;;;;;;;5018584;28;20496;-85
2022/09/26 03:47:08;;;;;;;5.15;2.25;;;;;;;;;;5042650;28;20516;-85
2022/09/26 03:49:40;;;;;;;5.68;2.95;;;;;;;;;;5042752;28;20064;-85
2022/09/26 03:52:58;;;;;;;4.68;2.63;;;;;;;;;;5044319;28;20492;-84
2022/09/26 03:55:30;;;;;;;6.32;2.53;;;;;;;;;;5024768;28;20127;-85
2022/09/26 03:58:02;;;;;;;12.73;2.67;;;;;;;;;;5038378;28;20048;-84
2022/09/26 04:00:34;;;;;;;6.90;2.35;;;;;;;;;;5022933;28;20559;-84
2022/09/26 04:03:02;;;;;;;5.32;2.85;;;;;;;;;;5010483;28;20041;-85
2022/09/26 04:05:53;;;;;;;4.25;2.33;;;;;;;;;;5042729;28;20133;-84
2022/09/26 04:08:21;;;;;;;6.13;2.67;;;;;;;;;;5041583;28;20063;-85
2022/09/26 04:10:49;;;;;;;9.02;2.70;;;;;;;;;;5024400;28;20044;-85
2022/09/26 04:13:23;;;;;;;7.57;2.72;;;;;;;;;;5025713;28;20041;-84
2022/09/26 04:16:11;;;;;;;6.80;2.60;;;;;;;;;;5040931;28;20519;-85
2022/09/26 04:18:41;;;;;;;6.47;2.80;;;;;;;;;;5041922;28;20053;-85
2022/09/26 04:21:12;;;;;;;7.35;3.03;;;;;;;;;;5024926;28;20467;-84
2022/09/26 04:23:41;;;;;;;3.78;2.30;;;;;;;;;;5026022;28;20048;-85
2022/09/26 04:26:13;;;;;;;7.28;2.92;;;;;;;;;;5041874;28;20052;-85
2022/09/26 04:28:53;;;;;;;4.82;3.00;;;;;;;;;;5041132;28;20459;-84
2022/09/26 04:31:48;;;;;;;7.22;3.15;;;;;;;;;;5023656;28;20070;-85
2022/09/26 04:34:23;;;;;;;7.78;2.70;;;;;;;;;;5041728;28;20058;-85
2022/09/26 04:36:54;;;;;;;8.45;2.97;;;;;;;;;;5025551;28;20044;-85
2022/09/26 04:39:22;;;;;;;5.15;2.55;;;;;;;;;;5024057;28;20040;-85
2022/09/26 04:41:51;;;;;;;7.65;2.97;;;;;;;;;;5041199;28;20049;-84
2022/09/26 04:44:17;;;;;;;4.63;2.78;;;;;;;;;;5022528;28;20056;-84
2022/09/26 04:46:46;;;;;;;12.02;3.00;;;;;;;;;;5026211;28;20041;-85
2022/09/26 04:49:15;;;;;;;6.55;2.63;;;;;;;;;;5023970;28;20041;-86
2022/09/26 04:51:44;;;;;;;7.60;2.85;;;;;;;;;;5026201;28;20075;-85
2022/09/26 04:54:37;;;;;;;6.30;2.92;;;;;;;;;;5022908;28;20612;-84
2022/09/26 04:57:30;;;;;;;7.38;2.90;;;;;;;;;;5041091;28;20045;-85
2022/09/26 05:00:22;;;;;;;10.23;3.38;;;;;;;;;;5024011;28;20095;-85
2022/09/26 05:02:50;;;;;;;6.70;2.58;;;;;;;;;;5025167;28;20036;-86
2022/09/26 05:05:17;;;;;;;7.20;2.88;;;;;;;;;;5041550;28;20069;-85
2022/09/26 05:07:51;;;;;;;8.93;3.00;;;;;;;;;;5026989;28;20049;-84
2022/09/26 05:10:17;;;;;;;7.28;3.55;;;;;;;;;;5046898;28;20056;-84
2022/09/26 05:12:52;;;;;;;4.72;2.00;;;;;;;;;;5045111;28;20053;-84
2022/09/26 05:15:25;;;;;;;6.18;2.38;;;;;;;;;;5045767;28;20070;-86
2022/09/26 05:18:00;;;;;;;9.65;2.67;;;;;;;;;;5045413;28;20044;-86
2022/09/26 05:20:30;;;;;;;6.35;3.40;;;;;;;;;;5027948;28;20465;-85
2022/09/26 05:23:04;;;;;;;9.63;2.85;;;;;;;;;;5045403;28;20048;-86
2022/09/26 05:28:53;;;;;;;10.02;2.70;;;;;;;;;;5045854;28;20099;-86
2022/09/26 05:31:26;;;;;;;5.28;2.55;;;;;;;;;;5044123;28;20044;-86
2022/09/26 05:33:57;;;;;;;5.05;2.95;;;;;;;;;;5029592;28;20041;-85
2022/09/26 05:36:26;;;;;;;9.20;2.92;;;;;;;;;;5027857;28;20052;-86
2022/09/26 05:39:00;;;;;;;8.02;3.00;;;;;;;;;;5029114;28;20040;-87
2022/09/26 05:41:36;;;;;;;6.30;3.00;;;;;;;;;;5042169;28;20056;-87
2022/09/26 05:44:03;;;;;;;6.32;2.63;;;;;;;;;;5021099;28;20068;-86
2022/09/26 05:46:37;;;;;;;7.65;2.78;;;;;;;;;;5030004;28;20048;-86
2022/09/26 05:49:31;;;;;;;10.27;2.75;;;;;;;;;;5043838;28;20056;-86
2022/09/26 05:52:01;;;;;;;6.50;2.65;;;;;;;;;;5045235;28;20605;-86
2022/09/26 05:54:53;;;;;;;5.15;2.90;;;;;;;;;;5044319;28;20094;-86
2022/09/26 05:57:58;;;;;;;6.20;2.75;;;;;;;;;;4982570;28;20058;-87
2022/09/26 06:01:13;;;;;;;7.82;3.20;;;;;;;;;;4923879;29;20107;-86
2022/09/26 06:03:44;;;;;;;8.18;3.08;;;;;;;;;;4907564;29;20135;-86
2022/09/26 06:06:20;;;;;;;7.47;2.90;;;;;;;;;;4925069;29;20068;-86
2022/09/26 06:08:54;;;;;;;7.75;2.90;;;;;;;;;;4924350;29;20158;-86
2022/09/26 06:11:49;;;;;;;8.50;2.63;;;;;;;;;;4923384;29;20777;-86
2022/09/26 06:15:08;;;;;;;9.80;2.55;;;;;;;;;;4923580;29;20147;-86
2022/09/26 06:17:40;;;;;;;6.35;2.63;;;;;;;;;;4906858;29;20714;-84
2022/09/26 06:20:34;;;;;;;6.13;2.85;;;;;;;;;;4923416;29;20067;-83
2022/09/26 06:23:03;;;;;;;5.00;2.70;;;;;;;;;;4920871;29;20064;-84
2022/09/26 06:25:56;;;;;;;3.92;2.60;;;;;;;;;;4922917;29;20050;-83
2022/09/26 06:29:11;;;;;;;11.93;3.03;;;;;;;;;;4922269;29;20051;-84
2022/09/26 06:31:42;;;;;;;7.53;3.25;;;;;;;;;;4919863;29;20052;-84
2022/09/26 06:34:12;;;;;;;11.40;3.25;;;;;;;;;;4929477;28;20181;-83
2022/09/26 06:37:11;;;;;;;4.95;2.58;;;;;;;;;;4932121;29;20157;-83
2022/09/26 06:39:39;;;;;;;9.45;3.10;;;;;;;;;;4942846;28;20130;-83
2022/09/26 06:42:07;;;;;;;10.93;3.25;;;;;;;;;;4921531;29;20047;-83
2022/09/26 06:44:55;;;;;;;6.05;2.65;;;;;;;;;;4865130;29;20185;-83
2022/09/26 06:47:46;;;;;;;11.15;3.03;;;;;;;;;;4849241;29;20068;-83
2022/09/26 06:50:27;;;;;;;4.85;2.63;;;;;;;;;;4881114;29;20142;-83
2022/09/26 06:53:03;;;;;;;7.03;2.80;;;;;;;;;;4879651;29;20097;-83
2022/09/26 06:55:39;;;;;;;7.18;2.70;;;;;;;;;;4877116;29;20108;-84
2022/09/26 06:58:07;;;;;;;4.45;2.50;;;;;;;;;;4852827;29;20057;-84
2022/09/26 07:00:50;;;;;;;7.25;3.13;;;;;;;;;;4884038;29;20055;-83
2022/09/26 07:03:49;;;;;;;6.60;2.88;;;;;;;;;;4867022;29;20940;-84
2022/09/26 07:06:37;;;;;;;7.90;3.10;;;;;;;;;;4867398;29;20064;-83
2022/09/26 07:09:05;;;;;;;9.75;2.42;;;;;;;;;;4852867;29;20067;-84
2022/09/26 07:12:02;;;;;;;5.35;2.80;;;;;;;;;;4880693;29;20052;-83
2022/09/26 07:14:42;;;;;;;4.32;2.45;;;;;;;;;;4926715;29;20051;-84
2022/09/26 07:17:35;;;;;;;8.70;2.75;;;;;;;;;;4942049;28;21014;-83
2022/09/26 07:20:32;;;;;;;8.93;2.55;;;;;;;;;;4943046;28;20126;-83
2022/09/26 07:23:04;;;;;;;5.95;2.78;;;;;;;;;;5027400;28;20424;-83
2022/09/26 07:25:32;;;;;;;9.90;2.75;;;;;;;;;;5025834;28;20044;-83
2022/09/26 07:28:01;;;;;;;7.05;3.20;;;;;;;;;;5024210;28;20044;-83
2022/09/26 07:30:41;;;;;;;5.50;2.85;;;;;;;;;;5024808;28;20068;-83
2022/09/26 07:33:31;;;;;;;9.43;2.90;;;;;;;;;;4998689;28;20620;-83
2022/09/26 07:36:04;;;;;;;5.53;2.88;;;;;;;;;;4982822;28;20148;-84
2022/09/26 07:38:31;;;;;;;9.00;3.03;;;;;;;;;;4983525;28;20060;-83
2022/09/26 07:40:59;;;;;;;4.88;2.60;;;;;;;;;;4992352;28;20049;-83
2022/09/26 07:43:33;;;;;;;5.50;2.80;;;;;;;;;;4987021;28;20081;-84
2022/09/26 07:51:56;;;;;;;5.45;2.30;;;;;;;;;;5001082;28;20053;-84
2022/09/26 07:54:33;;;;;;;5.38;2.40;;;;;;;;;;4981947;28;20052;-85
2022/09/26 07:57:22;;;;;;;6.90;2.20;;;;;;;;;;4956568;28;20070;-84
2022/09/26 08:00:11;;;;;;;8.32;2.83;;;;;;;;;;4944440;28;20070;-85
2022/09/26 08:02:55;;;;;;;5.70;2.72;;;;;;;;;;4947995;28;20141;-85
2022/09/26 08:05:23;;;;;;;6.72;3.05;;;;;;;;;;4961391;28;20058;-85
2022/09/26 08:07:51;;;;;;;8.82;3.15;;;;;;;;;;4941044;28;20632;-85
2022/09/26 08:10:41;;;;;;;8.85;3.63;;;;;;;;;;4953932;28;20062;-84
2022/09/26 08:13:42;;;;;;;11.00;3.00;;;;;;;;;;4937075;28;20557;-85
2022/09/26 08:16:22;;;;;;;8.55;3.08;;;;;;;;;;4935376;28;20523;-85
2022/09/26 08:18:53;;;;;;;10.45;3.40;;;;;;;;;;4924781;28;20058;-85
2022/09/26 08:21:22;;;;;;;9.35;3.00;;;;;;;;;;4921978;28;20159;-85
2022/09/26 08:23:52;;;;;;;7.43;2.95;;;;;;;;;;4941588;28;20506;-85
2022/09/26 08:26:31;;;;;;;6.60;3.60;;;;;;;;;;4936365;28;20046;-85
2022/09/26 08:29:13;;;;;;;10.88;3.72;;;;;;;;;;4940008;28;20142;-85
2022/09/26 08:31:44;;;;;;;7.47;3.45;;;;;;;;;;4921454;28;20126;-85
2022/09/26 08:34:39;;;;;;;8.20;3.60;;;;;;;;;;4944246;28;20138;-85
2022/09/26 08:37:26;;;;;;;7.15;3.10;;;;;;;;;;4950044;28;20203;-85
2022/09/26 08:40:14;;;;;;;5.95;3.70;;;;;;;;;;4952357;28;20043;-85
2022/09/26 08:43:12;;;;;;;6.65;3.60;;;;;;;;;;4953091;28;21158;-85
2022/09/26 08:47:05;;;;;;;8.57;3.85;;;;;;;;;;4951214;28;20207;-84
2022/09/26 08:50:25;;;;;;;8.10;3.95;;;;;;;;;;4998797;28;20053;-84
2022/09/26 08:53:06;;;;;;;11.10;4.30;;;;;;;;;;5026545;28;20047;-84
2022/09/26 08:55:43;;;;;;;7.03;4.15;;;;;;;;;;5024034;28;20052;-85
2022/09/26 08:58:34;;;;;;;8.35;4.78;;;;;;;;;;5038567;28;20276;-84
2022/09/26 09:01:08;;;;;;;8.73;4.38;;;;;;;;;;5021580;28;20131;-84
2022/09/26 09:04:16;;;;;;;8.55;4.20;;;;;;;;;;5039740;28;20091;-83
2022/09/26 09:06:44;;;;;;;8.07;4.15;;;;;;;;;;5023015;28;20500;-84
2022/09/26 09:09:15;;;;;;;10.10;4.72;;;;;;;;;;5019732;28;20049;-84
2022/09/26 09:12:32;;;;;;;9.38;4.63;;;;;;;;;;5039014;28;20039;-83
2022/09/26 09:15:37;;;;;;;9.10;4.68;;;;;;;;;;5036352;28;20048;-84
2022/09/26 09:18:13;;;;;;;10.25;4.80;;;;;;;;;;5044515;28;20037;-84
2022/09/26 09:20:58;;;;;;;9.82;4.63;;;;;;;;;;5022821;28;20090;-84
2022/09/26 09:24:11;;;;;;;8.55;4.70;;;;;;;;;;5036983;28;20041;-84
2022/09/26 09:27:00;;;;;;;10.20;5.53;;;;;;;;;;5003319;28;20081;-84
2022/09/26 09:30:16;;;;;;;8.70;4.55;;;;;;;;;;5041443;28;20186;-84
2022/09/26 09:33:36;;;;;;;10.02;4.55;;;;;;;;;;5042798;28;20033;-84
2022/09/26 09:36:41;;;;;;;8.50;4.53;;;;;;;;;;4923463;28;20055;-83
2022/09/26 09:39:35;;;;;;;10.45;4.63;;;;;;;;;;4925028;28;20046;-84
2022/09/26 09:42:42;;;;;;;11.25;5.35;;;;;;;;;;4942384;28;20043;-83
2022/09/26 09:45:31;;;;;;;11.63;5.07;;;;;;;;;;4924032;29;20047;-83
2022/09/26 09:48:26;;;;;;;11.93;4.75;;;;;;;;;;4939076;28;20522;-84
2022/09/26 09:51:09;;;;;;;9.38;4.93;;;;;;;;;;4941234;28;20047;-84
2022/09/26 09:54:25;;;;;;;9.45;4.63;;;;;;;;;;4944901;28;20195;-84
2022/09/26 09:57:15;;;;;;;8.88;4.55;;;;;;;;;;4939848;28;20046;-84
2022/09/26 10:00:01;;;;;;;7.40;4.50;;;;;;;;;;4928881;28;20055;-84
2022/09/26 10:02:42;;;;;;;7.43;4.00;;;;;;;;;;4944826;28;20043;-84
2022/09/26 10:05:26;;;;;;;7.10;4.38;;;;;;;;;;4949492;29;20058;-84
2022/09/26 10:07:56;;;;;;;9.88;5.00;;;;;;;;;;4941295;28;20047;-83
2022/09/26 10:11:06;;;;;;;9.05;4.45;;;;;;;;;;4936267;28;20051;-84
2022/09/26 10:14:12;;;;;;;6.72;3.92;;;;;;;;;;5041883;28;20134;-84
2022/09/26 10:17:08;;;;;;;7.18;4.07;;;;;;;;;;5042776;28;20045;-83
2022/09/26 10:19:50;;;;;;;8.50;4.00;;;;;;;;;;5028853;28;20049;-84
2022/09/26 10:22:31;;;;;;;6.15;3.65;;;;;;;;;;5026612;28;20148;-84
2022/09/26 10:25:19;;;;;;;9.20;3.58;;;;;;;;;;5026075;28;20037;-83
2022/09/26 10:27:56;;;;;;;7.88;3.42;;;;;;;;;;5043840;28;20065;-84
2022/09/26 10:30:32;;;;;;;8.10;3.13;;;;;;;;;;5026754;28;20139;-83
2022/09/26 10:33:04;;;;;;;6.55;3.40;;;;;;;;;;5027979;28;20033;-84
2022/09/26 10:35:44;;;;;;;4.82;3.58;;;;;;;;;;5027850;28;20066;-84
2022/09/26 10:38:28;;;;;;;7.45;3.60;;;;;;;;;;5026749;28;20588;-83
2022/09/26 10:41:22;;;;;;;6.25;3.20;;;;;;;;;;5025250;28;20118;-84
2022/09/26 10:43:53;;;;;;;6.57;3.22;;;;;;;;;;5024021;28;20036;-83
2022/09/26 10:46:44;;;;;;;5.72;2.95;;;;;;;;;;5021300;28;20135;-84
2022/09/26 10:49:51;;;;;;;5.82;2.95;;;;;;;;;;5030977;28;20059;-84
2022/09/26 10:52:51;;;;;;;5.20;2.60;;;;;;;;;;5040105;28;20038;-83
2022/09/26 10:55:38;;;;;;;5.07;2.83;;;;;;;;;;5019888;28;20041;-84
2022/09/26 10:58:19;;;;;;;6.40;2.90;;;;;;;;;;5023508;28;20068;-84
2022/09/26 11:00:51;;;;;;;6.75;2.55;;;;;;;;;;5041685;28;20130;-83
2022/09/26 11:03:43;;;;;;;5.00;2.60;;;;;;;;;;5027332;28;20128;-84
2022/09/26 11:06:30;;;;;;;6.78;2.35;;;;;;;;;;5042693;28;20538;-83
2022/09/26 11:09:04;;;;;;;4.28;2.58;;;;;;;;;;5014828;28;20073;-84
2022/09/26 11:11:41;;;;;;;6.32;2.22;;;;;;;;;;5041137;28;20046;-83
2022/09/26 11:14:08;;;;;;;4.32;2.40;;;;;;;;;;5020301;28;20067;-84
2022/09/26 11:17:11;;;;;;;5.85;2.13;;;;;;;;;;5026203;28;20516;-84
2022/09/26 11:19:59;;;;;;;4.45;2.38;;;;;;;;;;5025407;28;20048;-84
2022/09/26 11:22:47;;;;;;;4.85;2.28;;;;;;;;;;5024272;28;20516;-84
2022/09/26 11:25:49;;;;;;;7.32;2.30;;;;;;;;;;5039605;28;20037;-84
2022/09/26 11:29:07;;;;;;;7.07;1.85;;;;;;;;;;5021679;28;20148;-84
2022/09/26 11:32:16;;;;;;;6.50;2.10;;;;;;;;;;5014556;28;20040;-84
2022/09/26 11:36:15;;;;;;;5.40;2.42;;;;;;;;;;4978039;28;20058;-84
2022/09/26 11:39:10;;;;;;;4.60;2.25;;;;;;;;;;4938327;28;20051;-84
2022/09/26 11:41:58;;;;;;;5.80;2.60;;;;;;;;;;4939500;28;20087;-83
2022/09/26 11:44:44;;;;;;;4.75;1.98;;;;;;;;;;4940635;28;20051;-84
2022/09/26 11:47:49;;;;;;;4.50;2.33;;;;;;;;;;4934781;28;20174;-84
2022/09/26 11:50:55;;;;;;;8.48;2.95;;;;;;;;;;4908929;28;20553;-84
2022/09/26 11:53:34;;;;;;;7.20;2.83;;;;;;;;;;4936658;28;20244;-85
2022/09/26 11:56:23;;;;;;;6.65;2.70;;;;;;;;;;4939693;28;20054;-84
2022/09/26 11:59:17;;;;;;;5.85;2.35;;;;;;;;;;4938894;28;20065;-84
2022/09/26 12:02:08;;;;;;;6.25;2.67;;;;;;;;;;4942196;28;21010;-85
2022/09/26 12:04:56;;;;;;;9.30;2.58;;;;;;;;;;4937570;28;20156;-84
2022/09/26 12:08:00;;;;;;;5.32;2.90;;;;;;;;;;4925291;28;20062;-84
2022/09/26 12:10:48;;;;;;;8.27;2.95;;;;;;;;;;4939197;28;20051;-84
2022/09/26 12:13:40;;;;;;;7.18;2.75;;;;;;;;;;4959423;28;20047;-84
2022/09/26 12:16:48;;;;;;;6.20;2.83;;;;;;;;;;5037980;28;20060;-84
2022/09/26 12:19:21;;;;;;;5.13;2.97;;;;;;;;;;5041918;28;20033;-83
2022/09/26 12:28:31;;;;;;;5.30;3.05;;;;;;;;;;5041854;28;20123;-84
2022/09/26 12:31:08;;;;;;;6.90;3.50;;;;;;;;;;5042016;28;20033;-84
2022/09/26 12:33:41;;;;;;;5.75;3.03;;;;;;;;;;5042555;28;20195;-84
2022/09/26 12:36:09;;;;;;;4.30;3.33;;;;;;;;;;5040940;28;20581;-84
2022/09/26 12:39:02;;;;;;;6.90;3.35;;;;;;;;;;5022239;28;20048;-84
2022/09/26 12:41:56;;;;;;;6.18;3.00;;;;;;;;;;5038702;28;20590;-84
2022/09/26 12:44:51;;;;;;;5.82;2.85;;;;;;;;;;5039174;28;20054;-84
2022/09/26 12:47:38;;;;;;;7.28;2.63;;;;;;;;;;5037063;28;20049;-84
2022/09/26 12:51:21;;;;;;;7.57;2.80;;;;;;;;;;5040097;28;20669;-83
2022/09/26 12:54:05;;;;;;;5.78;2.58;;;;;;;;;;5040818;28;20606;-83
2022/09/26 12:56:32;;;;;;;7.60;2.70;;;;;;;;;;5039826;28;20056;-85
2022/09/26 12:59:33;;;;;;;8.32;2.90;;;;;;;;;;5040230;28;20063;-84
2022/09/26 13:02:08;;;;;;;4.82;2.60;;;;;;;;;;5043134;28;20056;-84
2022/09/26 13:04:50;;;;;;;6.82;2.97;;;;;;;;;;5042454;28;20373;-84
2022/09/26 13:07:32;;;;;;;6.03;2.67;;;;;;;;;;5037942;28;20041;-84
2022/09/26 13:10:25;;;;;;;6.53;2.95;;;;;;;;;;5019897;28;20161;-84
2022/09/26 13:13:32;;;;;;;4.45;2.47;;;;;;;;;;5028110;28;20057;-84
2022/09/26 13:16:39;;;;;;;5.55;3.47;;;;;;;;;;4915943;29;20082;-84
2022/09/26 13:19:30;;;;;;;6.03;3.40;;;;;;;;;;4916272;29;20071;-84
2022/09/26 13:22:19;;;;;;;5.38;2.88;;;;;;;;;;4915584;29;20047;-84
2022/09/26 13:24:57;;;;;;;4.32;2.70;;;;;;;;;;4914123;29;20461;-84
2022/09/26 13:28:08;;;;;;;5.90;2.60;;;;;;;;;;4916562;29;20071;-84
2022/09/26 13:31:04;;;;;;;4.25;2.53;;;;;;;;;;4918967;29;20085;-84
2022/09/26 13:34:02;;;;;;;4.45;3.20;;;;;;;;;;4920478;29;20056;-84
2022/09/26 13:36:32;;;;;;;6.15;2.75;;;;;;;;;;4902905;29;20106;-84
2022/09/26 13:39:29;;;;;;;5.75;3.10;;;;;;;;;;4917917;29;20051;-84
2022/09/26 13:42:35;;;;;;;5.80;2.92;;;;;;;;;;4913407;29;20771;-84
2022/09/26 13:45:17;;;;;;;5.03;2.75;;;;;;;;;;4863406;29;20140;-84
2022/09/26 13:47:56;;;;;;;5.22;2.47;;;;;;;;;;4863615;29;20049;-84
2022/09/26 13:50:32;;;;;;;5.45;2.50;;;;;;;;;;4862828;29;20089;-84
2022/09/26 13:53:25;;;;;;;4.60;2.80;;;;;;;;;;4926663;28;20057;-84
2022/09/26 13:56:29;;;;;;;9.02;2.88;;;;;;;;;;4955285;28;20058;-84
2022/09/26 13:59:24;;;;;;;5.72;2.70;;;;;;;;;;4916271;29;20055;-84
2022/09/26 14:02:18;;;;;;;8.27;2.90;;;;;;;;;;4917393;29;20088;-84
2022/09/26 14:05:18;;;;;;;6.38;2.65;;;;;;;;;;4917645;29;20574;-84
2022/09/26 14:10:52;;;;;;;6.32;3.03;;;;;;;;;;4915703;29;20066;-84
2022/09/26 14:13:35;;;;;;;5.68;2.88;;;;;;;;;;4915268;29;20064;-83
2022/09/26 14:16:26;;;;;;;5.30;2.88;;;;;;;;;;4911117;29;20155;-84
2022/09/26 14:18:59;;;;;;;6.55;2.85;;;;;;;;;;4915021;29;20115;-84
2022/09/26 14:21:32;;;;;;;8.45;2.67;;;;;;;;;;4929088;28;20054;-84
2022/09/26 14:24:35;;;;;;;6.45;2.80;;;;;;;;;;4943350;28;20047;-84
2022/09/26 14:27:10;;;;;;;9.35;3.10;;;;;;;;;;4943853;28;20070;-84
2022/09/26 14:30:23;;;;;;;6.15;3.10;;;;;;;;;;4945452;29;20058;-84
2022/09/26 14:33:16;;;;;;;9.73;3.63;;;;;;;;;;4943851;28;20047;-84
2022/09/26 14:35:43;;;;;;;7.40;3.40;;;;;;;;;;5039704;28;20074;-84
2022/09/26 14:38:16;;;;;;;6.93;3.25;;;;;;;;;;5043338;28;20041;-85
2022/09/26 14:41:17;;;;;;;5.88;2.97;;;;;;;;;;5043809;28;20024;-85
2022/09/26 14:43:50;;;;;;;7.65;3.67;;;;;;;;;;5041636;28;20266;-84
2022/09/26 14:46:22;;;;;;;8.50;3.75;;;;;;;;;;5043630;28;20068;-84
2022/09/26 14:49:04;;;;;;;6.25;2.90;;;;;;;;;;5028503;28;20053;-84
2022/09/26 14:51:40;;;;;;;6.88;2.97;;;;;;;;;;5043881;28;20472;-84
2022/09/26 14:54:22;;;;;;;5.55;2.97;;;;;;;;;;5043384;28;20049;-84
2022/09/26 14:57:16;;;;;;;13.07;4.20;;;;;;;;;;5025905;28;20037;-84
2022/09/26 15:00:33;;;;;;;5.25;2.88;;;;;;;;;;5045627;28;20396;-84
2022/09/26 15:03:13;;;;;;;7.45;3.28;;;;;;;;;;5045007;28;20068;-84
2022/09/26 15:05:45;;;;;;;10.30;2.95;;;;;;;;;;5045298;28;20073;-84
2022/09/26 15:08:25;;;;;;;5.88;3.28;;;;;;;;;;5045501;28;20366;-84
2022/09/26 15:11:43;;;;;;;7.15;2.75;;;;;;;;;;5045190;28;20047;-84
2022/09/26 15:14:24;;;;;;;6.50;2.20;;;;;;;;;;5028115;28;20037;-84
2022/09/26 15:17:28;;;;;;;5.47;2.75;;;;;;;;;;5046038;28;20500;-84
2022/09/26 15:19:59;;;;;;;6.35;2.50;;;;;;;;;;5046069;28;20052;-84
2022/09/26 15:22:29;;;;;;;6.18;2.30;;;;;;;;;;5046479;28;20048;-84
2022/09/26 15:25:17;;;;;;;5.65;2.83;;;;;;;;;;5042599;28;20041;-84
2022/09/26 15:27:54;;;;;;;4.32;2.50;;;;;;;;;;5041048;28;20103;-85
2022/09/26 15:30:31;;;;;;;4.88;2.53;;;;;;;;;;5043494;28;20044;-84
2022/09/26 15:33:04;;;;;;;6.00;2.22;;;;;;;;;;5024793;28;20032;-85
2022/09/26 15:35:55;;;;;;;5.72;2.70;;;;;;;;;;5041508;28;20072;-84
2022/09/26 15:38:24;;;;;;;3.28;1.80;;;;;;;;;;5041974;28;20052;-84
2022/09/26 15:41:01;;;;;;;4.22;2.22;;;;;;;;;;5041726;28;20041;-84
2022/09/26 15:43:34;;;;;;;6.03;2.38;;;;;;;;;;5043783;28;20400;-84
2022/09/26 15:46:02;;;;;;;6.18;2.40;;;;;;;;;;5040111;28;20136;-84
2022/09/26 15:49:12;;;;;;;5.60;1.77;;;;;;;;;;5037827;28;20433;-84
2022/09/26 15:51:42;;;;;;;5.13;2.25;;;;;;;;;;5037285;28;20081;-85
2022/09/26 15:54:14;;;;;;;4.22;2.17;;;;;;;;;;5039147;28;20625;-84
2022/09/26 15:56:50;;;;;;;4.40;2.17;;;;;;;;;;5022565;28;20122;-84
2022/09/26 15:59:44;;;;;;;5.28;2.17;;;;;;;;;;5040452;28;20041;-84
2022/09/26 16:02:31;;;;;;;5.78;2.30;;;;;;;;;;5037506;28;20524;-84
2022/09/26 16:05:00;;;;;;;5.28;2.20;;;;;;;;;;5041223;28;20094;-84
2022/09/26 16:07:29;;;;;;;4.50;2.00;;;;;;;;;;5040880;28;20496;-84
2022/09/26 16:09:59;;;;;;;5.55;2.30;;;;;;;;;;5039553;28;20048;-84
2022/09/26 16:12:30;;;;;;;3.65;2.03;;;;;;;;;;5040990;28;20036;-84
2022/09/26 16:15:17;;;;;;;4.85;2.17;;;;;;;;;;5038624;28;20374;-84
2022/09/26 16:18:25;;;;;;;6.82;2.50;;;;;;;;;;5041311;28;20525;-84
2022/09/26 16:21:17;;;;;;;5.50;2.35;;;;;;;;;;5038585;28;20526;-84
2022/09/26 16:24:37;;;;;;;4.75;2.78;;;;;;;;;;5037946;28;20476;-84
2022/09/26 16:27:33;;;;;;;7.00;2.80;;;;;;;;;;5041530;28;20067;-84
2022/09/26 16:30:27;;;;;;;4.93;2.05;;;;;;;;;;5041279;28;20051;-84
2022/09/26 16:33:21;;;;;;;6.70;2.85;;;;;;;;;;5040743;28;20033;-84
2022/09/26 16:36:00;;;;;;;5.15;2.17;;;;;;;;;;5024696;28;20403;-85
2022/09/26 16:38:32;;;;;;;7.63;2.33;;;;;;;;;;5018584;28;20056;-83
2022/09/26 16:41:23;;;;;;;4.18;1.80;;;;;;;;;;5043876;28;20052;-83
2022/09/26 16:44:39;;;;;;;6.13;1.80;;;;;;;;;;5041519;28;20098;-83